sensor_id;sensor_type;location;lat;lon;timestamp;P1;durP1;ratioP1;P2;durP2;ratioP2
18172;SDS011;9211;48.818;9.312;2023-07-09T00:01:49;6.60;;;3.70;;
18172;SDS011;9211;48.818;9.312;2023-07-09T00:04:18;7.25;;;3.38;;
18172;SDS011;9211;48.818;9.312;2023-07-09T00:06:46;7.47;;;3.77;;
18172;SDS011;9211;48.818;9.312;2023-07-09T00:09:13;6.85;;;3.45;;
18172;SDS011;9211;48.818;9.312;2023-07-09T00:11:41;5.95;;;3.47;;
18172;SDS011;9211;48.818;9.312;2023-07-09T00:14:09;7.90;;;3.88;;
18172;SDS011;9211;48.818;9.312;2023-07-09T00:16:37;6.80;;;3.22;;
18172;SDS011;9211;48.818;9.312;2023-07-09T00:19:07;9.35;;;3.40;;
18172;SDS011;9211;48.818;9.312;2023-07-09T00:21:40;9.05;;;3.63;;
18172;SDS011;9211;48.818;9.312;2023-07-09T00:24:07;6.57;;;3.30;;
18172;SDS011;9211;48.818;9.312;2023-07-09T00:26:36;6.50;;;3.20;;
18172;SDS011;9211;48.818;9.312;2023-07-09T00:29:07;9.85;;;3.20;;
18172;SDS011;9211;48.818;9.312;2023-07-09T00:31:36;6.77;;;3.20;;
18172;SDS011;9211;48.818;9.312;2023-07-09T00:34:08;7.03;;;3.30;;
18172;SDS011;9211;48.818;9.312;2023-07-09T00:36:37;6.10;;;3.30;;
18172;SDS011;9211;48.818;9.312;2023-07-09T00:39:10;11.00;;;3.78;;
18172;SDS011;9211;48.818;9.312;2023-07-09T00:41:43;6.10;;;3.23;;
18172;SDS011;9211;48.818;9.312;2023-07-09T00:44:21;9.77;;;3.20;;
18172;SDS011;9211;48.818;9.312;2023-07-09T00:47:15;5.50;;;2.90;;
18172;SDS011;9211;48.818;9.312;2023-07-09T00:49:46;7.85;;;3.15;;
18172;SDS011;9211;48.818;9.312;2023-07-09T00:52:20;6.38;;;3.20;;
18172;SDS011;9211;48.818;9.312;2023-07-09T00:54:49;5.40;;;2.92;;
18172;SDS011;9211;48.818;9.312;2023-07-09T00:57:19;6.80;;;3.28;;
18172;SDS011;9211;48.818;9.312;2023-07-09T00:59:49;7.28;;;3.28;;
18172;SDS011;9211;48.818;9.312;2023-07-09T01:02:21;7.53;;;3.03;;
18172;SDS011;9211;48.818;9.312;2023-07-09T01:04:49;5.63;;;3.10;;
18172;SDS011;9211;48.818;9.312;2023-07-09T01:07:19;5.57;;;3.00;;
18172;SDS011;9211;48.818;9.312;2023-07-09T01:09:47;7.10;;;3.30;;
18172;SDS011;9211;48.818;9.312;2023-07-09T01:12:14;6.78;;;3.50;;
18172;SDS011;9211;48.818;9.312;2023-07-09T01:14:45;7.03;;;3.40;;
18172;SDS011;9211;48.818;9.312;2023-07-09T01:17:13;8.93;;;3.67;;
18172;SDS011;9211;48.818;9.312;2023-07-09T01:19:41;8.73;;;3.97;;
18172;SDS011;9211;48.818;9.312;2023-07-09T01:22:11;7.00;;;3.85;;
18172;SDS011;9211;48.818;9.312;2023-07-09T01:24:51;9.73;;;4.22;;
18172;SDS011;9211;48.818;9.312;2023-07-09T01:27:22;8.10;;;3.72;;
18172;SDS011;9211;48.818;9.312;2023-07-09T01:29:51;8.55;;;3.90;;
18172;SDS011;9211;48.818;9.312;2023-07-09T01:32:19;10.20;;;4.07;;
18172;SDS011;9211;48.818;9.312;2023-07-09T01:34:48;9.05;;;4.20;;
18172;SDS011;9211;48.818;9.312;2023-07-09T01:37:20;8.90;;;3.95;;
18172;SDS011;9211;48.818;9.312;2023-07-09T01:39:50;9.70;;;4.00;;
18172;SDS011;9211;48.818;9.312;2023-07-09T01:42:19;8.43;;;4.10;;
18172;SDS011;9211;48.818;9.312;2023-07-09T01:44:48;7.30;;;4.05;;
18172;SDS011;9211;48.818;9.312;2023-07-09T01:47:16;8.07;;;4.03;;
18172;SDS011;9211;48.818;9.312;2023-07-09T01:49:44;6.90;;;3.70;;
18172;SDS011;9211;48.818;9.312;2023-07-09T01:52:12;9.27;;;4.10;;
18172;SDS011;9211;48.818;9.312;2023-07-09T01:54:43;9.23;;;4.10;;
18172;SDS011;9211;48.818;9.312;2023-07-09T01:57:15;9.82;;;4.40;;
18172;SDS011;9211;48.818;9.312;2023-07-09T01:59:44;10.02;;;4.20;;
18172;SDS011;9211;48.818;9.312;2023-07-09T02:02:12;8.65;;;4.47;;
18172;SDS011;9211;48.818;9.312;2023-07-09T02:04:44;8.15;;;4.10;;
18172;SDS011;9211;48.818;9.312;2023-07-09T02:07:13;7.90;;;4.07;;
18172;SDS011;9211;48.818;9.312;2023-07-09T02:09:40;9.98;;;4.18;;
18172;SDS011;9211;48.818;9.312;2023-07-09T02:12:10;8.63;;;4.20;;
18172;SDS011;9211;48.818;9.312;2023-07-09T02:14:38;8.75;;;4.20;;
18172;SDS011;9211;48.818;9.312;2023-07-09T02:17:06;8.85;;;3.95;;
18172;SDS011;9211;48.818;9.312;2023-07-09T02:19:34;7.33;;;3.70;;
18172;SDS011;9211;48.818;9.312;2023-07-09T02:22:01;7.03;;;3.87;;
18172;SDS011;9211;48.818;9.312;2023-07-09T02:24:28;8.55;;;3.92;;
18172;SDS011;9211;48.818;9.312;2023-07-09T02:26:57;6.25;;;3.80;;
18172;SDS011;9211;48.818;9.312;2023-07-09T02:29:25;5.65;;;3.70;;
18172;SDS011;9211;48.818;9.312;2023-07-09T02:31:55;7.38;;;4.05;;
18172;SDS011;9211;48.818;9.312;2023-07-09T02:34:23;7.15;;;3.83;;
18172;SDS011;9211;48.818;9.312;2023-07-09T02:36:51;9.37;;;4.07;;
18172;SDS011;9211;48.818;9.312;2023-07-09T02:39:19;10.02;;;4.00;;
18172;SDS011;9211;48.818;9.312;2023-07-09T02:41:47;7.90;;;3.97;;
18172;SDS011;9211;48.818;9.312;2023-07-09T02:44:16;8.77;;;4.00;;
18172;SDS011;9211;48.818;9.312;2023-07-09T02:46:44;8.50;;;3.60;;
18172;SDS011;9211;48.818;9.312;2023-07-09T02:49:12;7.30;;;3.80;;
18172;SDS011;9211;48.818;9.312;2023-07-09T02:51:40;8.38;;;4.00;;
18172;SDS011;9211;48.818;9.312;2023-07-09T02:54:07;7.72;;;4.18;;
18172;SDS011;9211;48.818;9.312;2023-07-09T02:56:34;8.77;;;3.85;;
18172;SDS011;9211;48.818;9.312;2023-07-09T02:59:01;9.85;;;4.03;;
18172;SDS011;9211;48.818;9.312;2023-07-09T03:01:29;7.18;;;4.10;;
18172;SDS011;9211;48.818;9.312;2023-07-09T03:03:59;8.55;;;4.03;;
18172;SDS011;9211;48.818;9.312;2023-07-09T03:06:28;7.27;;;3.70;;
18172;SDS011;9211;48.818;9.312;2023-07-09T03:08:58;9.02;;;4.03;;
18172;SDS011;9211;48.818;9.312;2023-07-09T03:11:27;7.53;;;4.07;;
18172;SDS011;9211;48.818;9.312;2023-07-09T03:13:56;7.15;;;4.10;;
18172;SDS011;9211;48.818;9.312;2023-07-09T03:16:25;8.30;;;4.30;;
18172;SDS011;9211;48.818;9.312;2023-07-09T03:18:54;7.22;;;4.13;;
18172;SDS011;9211;48.818;9.312;2023-07-09T03:21:21;7.90;;;3.75;;
18172;SDS011;9211;48.818;9.312;2023-07-09T03:23:48;8.43;;;3.80;;
18172;SDS011;9211;48.818;9.312;2023-07-09T03:26:15;8.90;;;3.75;;
18172;SDS011;9211;48.818;9.312;2023-07-09T03:28:42;7.23;;;3.90;;
18172;SDS011;9211;48.818;9.312;2023-07-09T03:31:09;7.43;;;3.97;;
18172;SDS011;9211;48.818;9.312;2023-07-09T03:33:36;9.00;;;3.93;;
18172;SDS011;9211;48.818;9.312;2023-07-09T03:36:05;6.53;;;3.78;;
18172;SDS011;9211;48.818;9.312;2023-07-09T03:38:32;9.90;;;4.03;;
18172;SDS011;9211;48.818;9.312;2023-07-09T03:40:59;8.82;;;3.83;;
18172;SDS011;9211;48.818;9.312;2023-07-09T03:43:26;8.80;;;3.97;;
18172;SDS011;9211;48.818;9.312;2023-07-09T03:45:53;8.67;;;4.10;;
18172;SDS011;9211;48.818;9.312;2023-07-09T03:48:20;8.20;;;3.80;;
18172;SDS011;9211;48.818;9.312;2023-07-09T03:50:47;9.13;;;4.05;;
18172;SDS011;9211;48.818;9.312;2023-07-09T03:53:16;10.38;;;4.10;;
18172;SDS011;9211;48.818;9.312;2023-07-09T03:55:45;8.70;;;4.00;;
18172;SDS011;9211;48.818;9.312;2023-07-09T03:58:12;11.25;;;4.05;;
18172;SDS011;9211;48.818;9.312;2023-07-09T04:00:39;9.30;;;4.40;;
18172;SDS011;9211;48.818;9.312;2023-07-09T04:03:06;7.63;;;3.90;;
18172;SDS011;9211;48.818;9.312;2023-07-09T04:05:35;8.48;;;3.88;;
18172;SDS011;9211;48.818;9.312;2023-07-09T04:08:03;7.90;;;3.92;;
18172;SDS011;9211;48.818;9.312;2023-07-09T04:10:32;10.73;;;3.95;;
18172;SDS011;9211;48.818;9.312;2023-07-09T04:12:58;8.18;;;3.85;;
18172;SDS011;9211;48.818;9.312;2023-07-09T04:15:26;7.85;;;3.78;;
18172;SDS011;9211;48.818;9.312;2023-07-09T04:17:53;7.13;;;3.75;;
18172;SDS011;9211;48.818;9.312;2023-07-09T04:20:20;7.57;;;3.58;;
18172;SDS011;9211;48.818;9.312;2023-07-09T04:22:47;8.10;;;3.67;;
18172;SDS011;9211;48.818;9.312;2023-07-09T04:25:14;6.70;;;3.75;;
18172;SDS011;9211;48.818;9.312;2023-07-09T04:27:43;7.80;;;3.65;;
18172;SDS011;9211;48.818;9.312;2023-07-09T04:30:11;8.60;;;3.70;;
18172;SDS011;9211;48.818;9.312;2023-07-09T04:32:40;7.57;;;3.70;;
18172;SDS011;9211;48.818;9.312;2023-07-09T04:35:09;8.80;;;3.85;;
18172;SDS011;9211;48.818;9.312;2023-07-09T04:37:37;7.15;;;3.60;;
18172;SDS011;9211;48.818;9.312;2023-07-09T04:40:05;6.20;;;3.40;;
18172;SDS011;9211;48.818;9.312;2023-07-09T04:42:35;5.90;;;3.50;;
18172;SDS011;9211;48.818;9.312;2023-07-09T04:45:06;7.80;;;3.60;;
18172;SDS011;9211;48.818;9.312;2023-07-09T04:47:34;9.82;;;3.38;;
18172;SDS011;9211;48.818;9.312;2023-07-09T04:50:02;7.35;;;3.55;;
18172;SDS011;9211;48.818;9.312;2023-07-09T04:52:29;6.63;;;3.60;;
18172;SDS011;9211;48.818;9.312;2023-07-09T04:54:57;6.65;;;3.80;;
18172;SDS011;9211;48.818;9.312;2023-07-09T04:57:24;7.80;;;3.67;;
18172;SDS011;9211;48.818;9.312;2023-07-09T04:59:51;8.13;;;3.88;;
18172;SDS011;9211;48.818;9.312;2023-07-09T05:02:20;9.70;;;3.90;;
18172;SDS011;9211;48.818;9.312;2023-07-09T05:04:47;5.95;;;3.50;;
18172;SDS011;9211;48.818;9.312;2023-07-09T05:07:14;7.95;;;3.55;;
18172;SDS011;9211;48.818;9.312;2023-07-09T05:09:41;8.50;;;3.63;;
18172;SDS011;9211;48.818;9.312;2023-07-09T05:12:08;7.50;;;3.60;;
18172;SDS011;9211;48.818;9.312;2023-07-09T05:14:35;9.30;;;3.97;;
18172;SDS011;9211;48.818;9.312;2023-07-09T05:17:02;8.33;;;3.63;;
18172;SDS011;9211;48.818;9.312;2023-07-09T05:19:31;7.25;;;3.47;;
18172;SDS011;9211;48.818;9.312;2023-07-09T05:21:59;6.93;;;3.65;;
18172;SDS011;9211;48.818;9.312;2023-07-09T05:24:26;8.32;;;3.88;;
18172;SDS011;9211;48.818;9.312;2023-07-09T05:26:53;6.27;;;3.37;;
18172;SDS011;9211;48.818;9.312;2023-07-09T05:29:20;8.52;;;3.88;;
18172;SDS011;9211;48.818;9.312;2023-07-09T05:31:47;8.02;;;3.70;;
18172;SDS011;9211;48.818;9.312;2023-07-09T05:34:14;7.18;;;3.88;;
18172;SDS011;9211;48.818;9.312;2023-07-09T05:36:42;9.70;;;3.88;;
18172;SDS011;9211;48.818;9.312;2023-07-09T05:39:09;7.57;;;3.60;;
18172;SDS011;9211;48.818;9.312;2023-07-09T05:41:37;6.72;;;3.75;;
18172;SDS011;9211;48.818;9.312;2023-07-09T05:44:04;7.85;;;4.13;;
18172;SDS011;9211;48.818;9.312;2023-07-09T05:46:33;8.35;;;3.95;;
18172;SDS011;9211;48.818;9.312;2023-07-09T05:49:02;8.18;;;3.50;;
18172;SDS011;9211;48.818;9.312;2023-07-09T05:51:29;9.23;;;3.95;;
18172;SDS011;9211;48.818;9.312;2023-07-09T05:53:58;6.80;;;3.63;;
18172;SDS011;9211;48.818;9.312;2023-07-09T05:56:25;7.97;;;3.80;;
18172;SDS011;9211;48.818;9.312;2023-07-09T05:58:52;6.38;;;3.47;;
18172;SDS011;9211;48.818;9.312;2023-07-09T06:01:19;5.35;;;3.63;;
18172;SDS011;9211;48.818;9.312;2023-07-09T06:03:46;7.65;;;3.70;;
18172;SDS011;9211;48.818;9.312;2023-07-09T06:06:14;7.90;;;3.70;;
18172;SDS011;9211;48.818;9.312;2023-07-09T06:08:41;6.50;;;3.70;;
18172;SDS011;9211;48.818;9.312;2023-07-09T06:11:09;7.23;;;3.40;;
18172;SDS011;9211;48.818;9.312;2023-07-09T06:13:36;8.30;;;3.40;;
18172;SDS011;9211;48.818;9.312;2023-07-09T06:16:04;6.97;;;3.60;;
18172;SDS011;9211;48.818;9.312;2023-07-09T06:18:31;6.35;;;3.63;;
18172;SDS011;9211;48.818;9.312;2023-07-09T06:20:59;6.18;;;3.63;;
18172;SDS011;9211;48.818;9.312;2023-07-09T06:23:28;8.27;;;3.70;;
18172;SDS011;9211;48.818;9.312;2023-07-09T06:25:55;10.00;;;3.77;;
18172;SDS011;9211;48.818;9.312;2023-07-09T06:28:24;7.65;;;3.90;;
18172;SDS011;9211;48.818;9.312;2023-07-09T06:30:54;8.30;;;3.70;;
18172;SDS011;9211;48.818;9.312;2023-07-09T06:33:21;6.30;;;3.83;;
18172;SDS011;9211;48.818;9.312;2023-07-09T06:35:51;7.07;;;3.42;;
18172;SDS011;9211;48.818;9.312;2023-07-09T06:38:21;6.72;;;3.50;;
18172;SDS011;9211;48.818;9.312;2023-07-09T06:40:48;6.53;;;3.63;;
18172;SDS011;9211;48.818;9.312;2023-07-09T06:43:15;6.32;;;3.85;;
18172;SDS011;9211;48.818;9.312;2023-07-09T06:45:56;5.72;;;3.50;;
18172;SDS011;9211;48.818;9.312;2023-07-09T06:48:25;6.87;;;3.70;;
18172;SDS011;9211;48.818;9.312;2023-07-09T06:50:53;7.70;;;3.92;;
18172;SDS011;9211;48.818;9.312;2023-07-09T06:53:22;7.57;;;4.13;;
18172;SDS011;9211;48.818;9.312;2023-07-09T06:55:49;13.70;;;8.38;;
18172;SDS011;9211;48.818;9.312;2023-07-09T06:58:18;10.02;;;5.95;;
18172;SDS011;9211;48.818;9.312;2023-07-09T07:00:45;8.35;;;4.10;;
18172;SDS011;9211;48.818;9.312;2023-07-09T07:03:19;8.07;;;3.75;;
18172;SDS011;9211;48.818;9.312;2023-07-09T07:05:47;7.70;;;3.90;;
18172;SDS011;9211;48.818;9.312;2023-07-09T07:08:15;6.90;;;3.70;;
18172;SDS011;9211;48.818;9.312;2023-07-09T07:10:44;7.80;;;3.75;;
18172;SDS011;9211;48.818;9.312;2023-07-09T07:13:12;6.83;;;3.87;;
18172;SDS011;9211;48.818;9.312;2023-07-09T07:15:39;7.35;;;3.83;;
18172;SDS011;9211;48.818;9.312;2023-07-09T07:18:07;8.85;;;3.80;;
18172;SDS011;9211;48.818;9.312;2023-07-09T07:20:35;7.63;;;3.85;;
18172;SDS011;9211;48.818;9.312;2023-07-09T07:23:02;6.27;;;3.73;;
18172;SDS011;9211;48.818;9.312;2023-07-09T07:25:31;6.68;;;3.63;;
18172;SDS011;9211;48.818;9.312;2023-07-09T07:27:58;8.10;;;3.90;;
18172;SDS011;9211;48.818;9.312;2023-07-09T07:30:25;7.25;;;3.58;;
18172;SDS011;9211;48.818;9.312;2023-07-09T07:32:53;5.78;;;3.50;;
18172;SDS011;9211;48.818;9.312;2023-07-09T07:35:20;7.50;;;3.80;;
18172;SDS011;9211;48.818;9.312;2023-07-09T07:37:48;6.30;;;3.55;;
18172;SDS011;9211;48.818;9.312;2023-07-09T07:40:15;6.60;;;4.07;;
18172;SDS011;9211;48.818;9.312;2023-07-09T07:42:42;8.37;;;4.53;;
18172;SDS011;9211;48.818;9.312;2023-07-09T07:45:09;8.38;;;4.28;;
18172;SDS011;9211;48.818;9.312;2023-07-09T07:47:36;6.70;;;3.95;;
18172;SDS011;9211;48.818;9.312;2023-07-09T07:50:04;8.27;;;4.00;;
18172;SDS011;9211;48.818;9.312;2023-07-09T07:52:32;7.18;;;3.55;;
18172;SDS011;9211;48.818;9.312;2023-07-09T07:55:04;7.50;;;3.83;;
18172;SDS011;9211;48.818;9.312;2023-07-09T07:57:32;6.82;;;3.83;;
18172;SDS011;9211;48.818;9.312;2023-07-09T07:59:59;7.28;;;3.70;;
18172;SDS011;9211;48.818;9.312;2023-07-09T08:02:26;7.40;;;3.80;;
18172;SDS011;9211;48.818;9.312;2023-07-09T08:04:53;5.80;;;3.80;;
18172;SDS011;9211;48.818;9.312;2023-07-09T08:07:20;8.35;;;3.75;;
18172;SDS011;9211;48.818;9.312;2023-07-09T08:09:47;10.82;;;3.85;;
18172;SDS011;9211;48.818;9.312;2023-07-09T08:12:15;6.65;;;3.90;;
18172;SDS011;9211;48.818;9.312;2023-07-09T08:14:44;7.67;;;3.60;;
18172;SDS011;9211;48.818;9.312;2023-07-09T08:17:12;7.20;;;3.55;;
18172;SDS011;9211;48.818;9.312;2023-07-09T08:19:45;6.70;;;3.53;;
18172;SDS011;9211;48.818;9.312;2023-07-09T08:22:13;8.40;;;3.70;;
18172;SDS011;9211;48.818;9.312;2023-07-09T08:24:40;8.37;;;3.60;;
18172;SDS011;9211;48.818;9.312;2023-07-09T08:27:08;7.28;;;3.78;;
18172;SDS011;9211;48.818;9.312;2023-07-09T08:29:37;8.25;;;3.75;;
18172;SDS011;9211;48.818;9.312;2023-07-09T08:32:05;7.85;;;3.90;;
18172;SDS011;9211;48.818;9.312;2023-07-09T08:34:32;6.32;;;3.78;;
18172;SDS011;9211;48.818;9.312;2023-07-09T08:36:59;7.85;;;3.90;;
18172;SDS011;9211;48.818;9.312;2023-07-09T08:39:26;6.75;;;3.63;;
18172;SDS011;9211;48.818;9.312;2023-07-09T08:41:57;6.97;;;3.90;;
18172;SDS011;9211;48.818;9.312;2023-07-09T08:44:30;7.35;;;3.58;;
18172;SDS011;9211;48.818;9.312;2023-07-09T08:47:17;7.72;;;3.92;;
18172;SDS011;9211;48.818;9.312;2023-07-09T08:49:54;7.65;;;3.90;;
18172;SDS011;9211;48.818;9.312;2023-07-09T08:52:26;7.35;;;3.90;;
18172;SDS011;9211;48.818;9.312;2023-07-09T08:54:57;6.22;;;3.90;;
18172;SDS011;9211;48.818;9.312;2023-07-09T08:57:29;6.78;;;3.50;;
18172;SDS011;9211;48.818;9.312;2023-07-09T09:00:02;5.85;;;3.50;;
18172;SDS011;9211;48.818;9.312;2023-07-09T09:02:37;8.98;;;4.10;;
18172;SDS011;9211;48.818;9.312;2023-07-09T09:05:09;6.57;;;3.83;;
18172;SDS011;9211;48.818;9.312;2023-07-09T09:07:40;6.35;;;3.90;;
18172;SDS011;9211;48.818;9.312;2023-07-09T09:10:10;6.35;;;3.67;;
18172;SDS011;9211;48.818;9.312;2023-07-09T09:12:43;6.60;;;3.63;;
18172;SDS011;9211;48.818;9.312;2023-07-09T09:15:19;7.57;;;3.67;;
18172;SDS011;9211;48.818;9.312;2023-07-09T09:17:48;6.03;;;3.55;;
18172;SDS011;9211;48.818;9.312;2023-07-09T09:20:19;7.47;;;3.83;;
18172;SDS011;9211;48.818;9.312;2023-07-09T09:22:48;5.88;;;3.50;;
18172;SDS011;9211;48.818;9.312;2023-07-09T09:25:22;6.67;;;3.37;;
18172;SDS011;9211;48.818;9.312;2023-07-09T09:27:52;5.57;;;3.45;;
18172;SDS011;9211;48.818;9.312;2023-07-09T09:30:21;6.93;;;3.30;;
18172;SDS011;9211;48.818;9.312;2023-07-09T09:32:52;5.70;;;3.40;;
18172;SDS011;9211;48.818;9.312;2023-07-09T09:35:25;6.18;;;3.47;;
18172;SDS011;9211;48.818;9.312;2023-07-09T09:37:55;5.85;;;3.47;;
18172;SDS011;9211;48.818;9.312;2023-07-09T09:40:24;7.15;;;3.70;;
18172;SDS011;9211;48.818;9.312;2023-07-09T09:42:57;6.87;;;3.40;;
18172;SDS011;9211;48.818;9.312;2023-07-09T09:45:26;6.38;;;3.40;;
18172;SDS011;9211;48.818;9.312;2023-07-09T09:47:59;5.45;;;3.20;;
18172;SDS011;9211;48.818;9.312;2023-07-09T09:50:27;6.30;;;3.00;;
18172;SDS011;9211;48.818;9.312;2023-07-09T09:52:58;6.78;;;3.00;;
18172;SDS011;9211;48.818;9.312;2023-07-09T09:55:27;4.75;;;2.88;;
18172;SDS011;9211;48.818;9.312;2023-07-09T09:57:56;5.63;;;3.15;;
18172;SDS011;9211;48.818;9.312;2023-07-09T10:00:23;6.57;;;3.00;;
18172;SDS011;9211;48.818;9.312;2023-07-09T10:02:57;5.97;;;2.90;;
18172;SDS011;9211;48.818;9.312;2023-07-09T10:05:27;6.60;;;2.85;;
18172;SDS011;9211;48.818;9.312;2023-07-09T10:07:59;5.07;;;2.60;;
18172;SDS011;9211;48.818;9.312;2023-07-09T10:10:30;8.20;;;2.85;;
18172;SDS011;9211;48.818;9.312;2023-07-09T10:13:00;4.80;;;2.75;;
18172;SDS011;9211;48.818;9.312;2023-07-09T10:15:34;5.60;;;2.60;;
18172;SDS011;9211;48.818;9.312;2023-07-09T10:18:09;5.18;;;2.60;;
18172;SDS011;9211;48.818;9.312;2023-07-09T10:20:45;4.85;;;2.60;;
18172;SDS011;9211;48.818;9.312;2023-07-09T10:23:19;7.15;;;2.55;;
18172;SDS011;9211;48.818;9.312;2023-07-09T10:25:54;8.80;;;3.03;;
18172;SDS011;9211;48.818;9.312;2023-07-09T10:29:02;4.57;;;2.30;;
18172;SDS011;9211;48.818;9.312;2023-07-09T10:31:40;6.18;;;2.58;;
18172;SDS011;9211;48.818;9.312;2023-07-09T10:34:16;6.50;;;2.60;;
18172;SDS011;9211;48.818;9.312;2023-07-09T10:39:51;5.75;;;2.50;;
18172;SDS011;9211;48.818;9.312;2023-07-09T10:42:22;6.93;;;3.03;;
18172;SDS011;9211;48.818;9.312;2023-07-09T10:44:54;6.50;;;2.83;;
18172;SDS011;9211;48.818;9.312;2023-07-09T10:47:27;7.05;;;2.70;;
18172;SDS011;9211;48.818;9.312;2023-07-09T10:49:58;4.63;;;2.80;;
18172;SDS011;9211;48.818;9.312;2023-07-09T10:52:27;4.82;;;2.75;;
18172;SDS011;9211;48.818;9.312;2023-07-09T10:54:58;6.50;;;2.80;;
18172;SDS011;9211;48.818;9.312;2023-07-09T10:57:30;4.90;;;2.60;;
18172;SDS011;9211;48.818;9.312;2023-07-09T10:59:58;6.30;;;2.90;;
18172;SDS011;9211;48.818;9.312;2023-07-09T11:02:29;5.77;;;2.90;;
18172;SDS011;9211;48.818;9.312;2023-07-09T11:04:58;5.63;;;2.73;;
18172;SDS011;9211;48.818;9.312;2023-07-09T11:07:27;6.20;;;2.60;;
18172;SDS011;9211;48.818;9.312;2023-07-09T11:09:59;6.15;;;2.72;;
18172;SDS011;9211;48.818;9.312;2023-07-09T11:12:31;6.07;;;2.90;;
18172;SDS011;9211;48.818;9.312;2023-07-09T11:15:01;5.47;;;2.72;;
18172;SDS011;9211;48.818;9.312;2023-07-09T11:17:35;6.45;;;3.08;;
18172;SDS011;9211;48.818;9.312;2023-07-09T11:20:16;6.65;;;2.83;;
18172;SDS011;9211;48.818;9.312;2023-07-09T11:22:50;9.98;;;3.33;;
18172;SDS011;9211;48.818;9.312;2023-07-09T11:25:26;6.38;;;3.30;;
18172;SDS011;9211;48.818;9.312;2023-07-09T11:28:01;6.30;;;2.90;;
18172;SDS011;9211;48.818;9.312;2023-07-09T11:30:29;5.43;;;2.80;;
18172;SDS011;9211;48.818;9.312;2023-07-09T11:32:58;6.50;;;2.90;;
18172;SDS011;9211;48.818;9.312;2023-07-09T11:35:27;5.45;;;2.90;;
18172;SDS011;9211;48.818;9.312;2023-07-09T11:37:55;5.40;;;3.00;;
18172;SDS011;9211;48.818;9.312;2023-07-09T11:40:33;6.90;;;2.90;;
18172;SDS011;9211;48.818;9.312;2023-07-09T11:43:00;7.05;;;3.03;;
18172;SDS011;9211;48.818;9.312;2023-07-09T11:45:27;6.28;;;3.13;;
18172;SDS011;9211;48.818;9.312;2023-07-09T11:47:59;8.25;;;3.42;;
18172;SDS011;9211;48.818;9.312;2023-07-09T11:50:32;6.07;;;3.17;;
18172;SDS011;9211;48.818;9.312;2023-07-09T11:53:11;6.97;;;3.30;;
18172;SDS011;9211;48.818;9.312;2023-07-09T11:55:48;6.85;;;3.45;;
18172;SDS011;9211;48.818;9.312;2023-07-09T11:58:16;8.75;;;3.50;;
18172;SDS011;9211;48.818;9.312;2023-07-09T12:00:45;6.55;;;3.25;;
18172;SDS011;9211;48.818;9.312;2023-07-09T12:03:17;7.78;;;3.65;;
18172;SDS011;9211;48.818;9.312;2023-07-09T12:05:47;6.32;;;3.35;;
18172;SDS011;9211;48.818;9.312;2023-07-09T12:08:16;8.30;;;3.20;;
18172;SDS011;9211;48.818;9.312;2023-07-09T12:10:44;8.48;;;3.40;;
18172;SDS011;9211;48.818;9.312;2023-07-09T12:13:11;7.37;;;3.47;;
18172;SDS011;9211;48.818;9.312;2023-07-09T12:15:39;7.30;;;3.30;;
18172;SDS011;9211;48.818;9.312;2023-07-09T12:18:10;7.00;;;3.28;;
18172;SDS011;9211;48.818;9.312;2023-07-09T12:20:39;7.33;;;3.43;;
18172;SDS011;9211;48.818;9.312;2023-07-09T12:23:11;8.63;;;3.50;;
18172;SDS011;9211;48.818;9.312;2023-07-09T12:25:48;7.40;;;3.50;;
18172;SDS011;9211;48.818;9.312;2023-07-09T12:28:17;5.95;;;3.45;;
18172;SDS011;9211;48.818;9.312;2023-07-09T12:30:46;7.70;;;3.60;;
18172;SDS011;9211;48.818;9.312;2023-07-09T12:33:15;6.93;;;3.40;;
18172;SDS011;9211;48.818;9.312;2023-07-09T12:35:45;7.30;;;3.50;;
18172;SDS011;9211;48.818;9.312;2023-07-09T12:38:17;9.20;;;3.70;;
18172;SDS011;9211;48.818;9.312;2023-07-09T12:40:45;7.38;;;3.40;;
18172;SDS011;9211;48.818;9.312;2023-07-09T12:43:13;8.43;;;3.80;;
18172;SDS011;9211;48.818;9.312;2023-07-09T12:45:43;6.37;;;3.40;;
18172;SDS011;9211;48.818;9.312;2023-07-09T12:48:10;8.70;;;3.60;;
18172;SDS011;9211;48.818;9.312;2023-07-09T12:50:39;7.00;;;3.40;;
18172;SDS011;9211;48.818;9.312;2023-07-09T12:53:13;7.00;;;3.50;;
18172;SDS011;9211;48.818;9.312;2023-07-09T12:55:42;11.10;;;3.55;;
18172;SDS011;9211;48.818;9.312;2023-07-09T12:58:15;7.68;;;3.80;;
18172;SDS011;9211;48.818;9.312;2023-07-09T13:00:47;8.95;;;3.58;;
18172;SDS011;9211;48.818;9.312;2023-07-09T13:03:17;7.50;;;3.60;;
18172;SDS011;9211;48.818;9.312;2023-07-09T13:05:53;7.90;;;3.60;;
18172;SDS011;9211;48.818;9.312;2023-07-09T13:08:24;8.20;;;3.60;;
18172;SDS011;9211;48.818;9.312;2023-07-09T13:10:51;6.32;;;3.50;;
18172;SDS011;9211;48.818;9.312;2023-07-09T13:13:20;7.88;;;3.50;;
18172;SDS011;9211;48.818;9.312;2023-07-09T13:15:48;9.30;;;3.72;;
18172;SDS011;9211;48.818;9.312;2023-07-09T13:18:22;9.40;;;3.80;;
18172;SDS011;9211;48.818;9.312;2023-07-09T13:20:49;7.05;;;3.30;;
18172;SDS011;9211;48.818;9.312;2023-07-09T13:23:18;7.00;;;3.80;;
18172;SDS011;9211;48.818;9.312;2023-07-09T13:25:48;7.10;;;3.60;;
18172;SDS011;9211;48.818;9.312;2023-07-09T13:28:16;7.38;;;3.50;;
18172;SDS011;9211;48.818;9.312;2023-07-09T13:30:44;6.65;;;3.08;;
18172;SDS011;9211;48.818;9.312;2023-07-09T13:33:12;9.38;;;3.67;;
18172;SDS011;9211;48.818;9.312;2023-07-09T13:35:40;6.85;;;3.38;;
18172;SDS011;9211;48.818;9.312;2023-07-09T13:38:11;7.72;;;3.60;;
18172;SDS011;9211;48.818;9.312;2023-07-09T13:40:40;9.02;;;3.30;;
18172;SDS011;9211;48.818;9.312;2023-07-09T13:43:11;6.53;;;3.10;;
18172;SDS011;9211;48.818;9.312;2023-07-09T13:45:39;6.97;;;3.17;;
18172;SDS011;9211;48.818;9.312;2023-07-09T13:48:18;5.82;;;2.90;;
18172;SDS011;9211;48.818;9.312;2023-07-09T13:50:47;7.20;;;2.92;;
18172;SDS011;9211;48.818;9.312;2023-07-09T13:53:17;8.00;;;2.90;;
18172;SDS011;9211;48.818;9.312;2023-07-09T13:55:46;7.57;;;3.05;;
18172;SDS011;9211;48.818;9.312;2023-07-09T13:58:17;8.02;;;2.80;;
18172;SDS011;9211;48.818;9.312;2023-07-09T14:00:46;4.90;;;2.38;;
18172;SDS011;9211;48.818;9.312;2023-07-09T14:03:15;5.78;;;2.70;;
18172;SDS011;9211;48.818;9.312;2023-07-09T14:05:45;6.30;;;2.75;;
18172;SDS011;9211;48.818;9.312;2023-07-09T14:08:12;5.78;;;2.60;;
18172;SDS011;9211;48.818;9.312;2023-07-09T14:10:39;5.77;;;2.77;;
18172;SDS011;9211;48.818;9.312;2023-07-09T14:13:08;6.30;;;2.72;;
18172;SDS011;9211;48.818;9.312;2023-07-09T14:15:40;7.40;;;2.80;;
18172;SDS011;9211;48.818;9.312;2023-07-09T14:18:09;6.30;;;2.60;;
18172;SDS011;9211;48.818;9.312;2023-07-09T14:20:38;8.50;;;2.97;;
18172;SDS011;9211;48.818;9.312;2023-07-09T14:23:05;5.70;;;2.43;;
18172;SDS011;9211;48.818;9.312;2023-07-09T14:25:34;6.35;;;2.38;;
18172;SDS011;9211;48.818;9.312;2023-07-09T14:28:01;8.03;;;2.70;;
18172;SDS011;9211;48.818;9.312;2023-07-09T14:30:34;6.45;;;2.72;;
18172;SDS011;9211;48.818;9.312;2023-07-09T14:33:02;4.70;;;2.55;;
18172;SDS011;9211;48.818;9.312;2023-07-09T14:35:35;5.53;;;2.63;;
18172;SDS011;9211;48.818;9.312;2023-07-09T14:38:04;4.63;;;2.43;;
18172;SDS011;9211;48.818;9.312;2023-07-09T14:40:41;7.40;;;2.60;;
18172;SDS011;9211;48.818;9.312;2023-07-09T14:43:09;4.32;;;2.47;;
18172;SDS011;9211;48.818;9.312;2023-07-09T14:45:37;5.53;;;2.70;;
18172;SDS011;9211;48.818;9.312;2023-07-09T14:48:09;4.78;;;2.47;;
18172;SDS011;9211;48.818;9.312;2023-07-09T14:50:37;5.30;;;2.60;;
18172;SDS011;9211;48.818;9.312;2023-07-09T14:53:05;8.05;;;2.75;;
18172;SDS011;9211;48.818;9.312;2023-07-09T14:55:39;5.25;;;2.80;;
18172;SDS011;9211;48.818;9.312;2023-07-09T14:58:10;5.32;;;2.53;;
18172;SDS011;9211;48.818;9.312;2023-07-09T15:00:40;4.68;;;2.78;;
18172;SDS011;9211;48.818;9.312;2023-07-09T15:03:17;5.25;;;2.70;;
18172;SDS011;9211;48.818;9.312;2023-07-09T15:05:46;4.95;;;2.70;;
18172;SDS011;9211;48.818;9.312;2023-07-09T15:08:14;6.80;;;2.90;;
18172;SDS011;9211;48.818;9.312;2023-07-09T15:10:44;6.03;;;2.75;;
18172;SDS011;9211;48.818;9.312;2023-07-09T15:13:16;5.53;;;2.55;;
18172;SDS011;9211;48.818;9.312;2023-07-09T15:15:44;6.20;;;2.80;;
18172;SDS011;9211;48.818;9.312;2023-07-09T15:18:13;5.32;;;2.45;;